Time;durP1;ratioP1;P1;durP2;ratioP2;P2;SDS_P1;SDS_P2;PMS_P1;PMS_P2;Temp;Humidity;BMP_temperature;BMP_pressure;BME280_temperature;BME280_humidity;BME280_pressure;Samples;Min_cycle;Max_cycle;Signal;HPM_P1;HPM_P2
2022/07/15 00:01:28;;;;;;;;;7.50;4.50;;;;;25.10;26.84;101656.63;5022738;28;45351;-62
2022/07/15 00:03:53;;;;;;;;;5.75;5.00;;;;;25.08;26.85;101663.91;5041262;28;45191;-62
2022/07/15 00:06:19;;;;;;;;;3.75;3.75;;;;;25.05;27.06;101658.75;5040754;28;45219;-62
2022/07/15 00:08:44;;;;;;;;;2.75;2.75;;;;;25.03;26.83;101671.41;5040819;28;45658;-62
2022/07/15 00:11:09;;;;;;;;;4.00;4.00;;;;;24.98;27.01;101664.50;5054480;28;45218;-62
2022/07/15 00:13:35;;;;;;;;;5.00;5.00;;;;;24.93;27.22;101658.53;5061150;28;45273;-62
2022/07/15 00:16:00;;;;;;;;;5.75;4.75;;;;;24.91;26.99;101660.44;5060590;28;45237;-62
2022/07/15 00:18:25;;;;;;;;;3.50;3.25;;;;;24.88;27.05;101657.94;5060777;28;45347;-62
2022/07/15 00:20:51;;;;;;;;;4.00;4.00;;;;;24.85;27.17;101659.94;5060065;28;46418;-62
2022/07/15 00:23:16;;;;;;;;;4.00;4.00;;;;;24.80;27.30;101662.91;5022709;28;45518;-61
2022/07/15 00:25:41;;;;;;;;;4.75;4.75;;;;;24.78;27.27;101654.94;5040558;28;45171;-62
2022/07/15 00:28:08;;;;;;;;;7.00;5.75;;;;;24.75;27.29;101663.16;5040657;28;45222;-62
2022/07/15 00:30:39;;;;;;;;;4.25;4.00;;;;;24.71;27.05;101658.94;5040483;28;45341;-61
2022/07/15 00:33:05;;;;;;;;;6.00;3.50;;;;;24.67;27.23;101665.47;5040131;28;45408;-61
2022/07/15 00:35:32;;;;;;;;;3.25;2.75;;;;;24.62;27.30;101668.38;5022303;28;45318;-61
2022/07/15 00:37:58;;;;;;;;;3.50;3.25;;;;;24.62;27.50;101678.28;5040199;28;47443;-62
2022/07/15 00:40:24;;;;;;;;;4.25;4.25;;;;;24.55;27.27;101672.38;5040018;28;45336;-62
2022/07/15 00:42:49;;;;;;;;;5.75;5.75;;;;;24.52;27.58;101672.56;5022673;28;45349;-61
2022/07/15 00:45:17;;;;;;;;;4.50;4.50;;;;;24.48;27.59;101676.41;5040266;28;45299;-62
2022/07/15 00:47:48;;;;;;;;;5.75;5.75;;;;;24.45;27.66;101682.81;5022206;28;47024;-61
2022/07/15 00:50:15;;;;;;;;;9.00;5.00;;;;;24.40;27.51;101684.91;5040041;28;45356;-61
2022/07/15 00:52:44;;;;;;;;;5.00;5.00;;;;;24.37;28.00;101693.13;5040001;28;45332;-61
2022/07/15 00:55:11;;;;;;;;;4.50;4.00;;;;;24.32;27.86;101682.63;5039939;28;45181;-62
2022/07/15 00:57:39;;;;;;;;;4.25;4.25;;;;;24.29;28.29;101688.19;5020907;28;45576;-62
2022/07/15 01:00:06;;;;;;;;;3.75;3.75;;;;;24.25;28.08;101691.13;5039846;28;45479;-61
2022/07/15 01:02:33;;;;;;;;;3.50;3.50;;;;;24.21;28.14;101700.34;5039946;28;45410;-61
2022/07/15 01:05:03;;;;;;;;;9.00;7.75;;;;;24.17;28.14;101705.00;5039793;28;45334;-61
2022/07/15 01:07:29;;;;;;;;;5.25;4.25;;;;;24.14;28.22;101699.81;5021747;28;47379;-61
2022/07/15 01:09:54;;;;;;;;;5.00;5.00;;;;;24.08;28.30;101697.47;5043156;28;45366;-61
2022/07/15 01:12:20;;;;;;;;;4.50;3.25;;;;;24.06;28.01;101707.44;5060258;28;45390;-61
2022/07/15 01:14:45;;;;;;;;;4.25;4.25;;;;;24.02;28.30;101701.38;5059749;28;45503;-61
2022/07/15 01:17:11;;;;;;;;;3.75;3.75;;;;;23.96;28.37;101713.31;5041688;28;45866;-61
2022/07/15 01:19:37;;;;;;;;;6.25;4.75;;;;;23.93;28.43;101713.47;5058690;28;45340;-61
2022/07/15 01:22:04;;;;;;;;;5.50;5.00;;;;;23.88;28.61;101714.66;5049306;28;45250;-61
2022/07/15 01:24:29;;;;;;;;;5.00;4.00;;;;;23.85;28.38;101711.19;5039310;28;45193;-61
2022/07/15 01:26:54;;;;;;;;;6.25;5.00;;;;;23.79;28.83;101719.56;5039606;28;45226;-61
2022/07/15 01:29:20;;;;;;;;;6.25;5.00;;;;;23.76;28.99;101729.59;5039486;28;45232;-61
2022/07/15 01:31:45;;;;;;;;;4.25;2.25;;;;;23.71;28.76;101724.50;5039553;28;45341;-61
2022/07/15 01:34:11;;;;;;;;;4.75;4.75;;;;;23.67;28.62;101726.50;5039477;28;45178;-61
2022/07/15 01:36:36;;;;;;;;;6.00;5.00;;;;;23.62;28.63;101715.16;5039643;28;46294;-61
2022/07/15 01:39:02;;;;;;;;;7.50;6.00;;;;;23.60;29.02;101713.50;5039052;28;45166;-61
2022/07/15 01:41:28;;;;;;;;;4.00;4.00;;;;;23.57;29.09;101716.31;5039631;28;45282;-61
2022/07/15 01:43:53;;;;;;;;;3.00;3.00;;;;;23.48;29.14;101704.28;5039349;28;45485;-61
2022/07/15 01:46:18;;;;;;;;;5.25;4.00;;;;;23.48;29.03;101718.56;5039365;28;45405;-61
2022/07/15 01:51:29;;;;;;;;;6.50;5.25;;;;;23.40;29.43;101719.94;5039527;28;45300;-61
2022/07/15 01:53:54;;;;;;;;;3.75;3.75;;;;;23.35;29.29;101714.78;5038909;28;45412;-61
2022/07/15 01:56:20;;;;;;;;;4.00;4.00;;;;;23.33;29.35;101709.53;5039486;28;45428;-61
2022/07/15 01:58:45;;;;;;;;;5.75;5.50;;;;;23.26;29.46;101712.56;5039067;28;45332;-61
2022/07/15 02:01:10;;;;;;;;;4.50;4.00;;;;;23.23;29.25;101718.97;5039399;28;45365;-61
2022/07/15 02:03:36;;;;;;;;;4.25;4.25;;;;;23.20;29.45;101722.69;5039182;28;45354;-61
2022/07/15 02:06:01;;;;;;;;;4.00;3.75;;;;;23.16;29.46;101720.25;5039195;28;45344;-61
2022/07/15 02:08:26;;;;;;;;;4.00;4.00;;;;;23.11;29.33;101714.25;5020991;28;45824;-61
2022/07/15 02:10:52;;;;;;;;;3.75;3.75;;;;;23.05;29.63;101716.25;5054052;28;45226;-61
2022/07/15 02:13:17;;;;;;;;;4.00;4.00;;;;;23.02;29.92;101713.75;5062791;28;45491;-61
2022/07/15 02:15:42;;;;;;;;;3.00;3.00;;;;;22.97;30.01;101707.75;5062487;28;45398;-61
2022/07/15 02:18:08;;;;;;;;;5.50;4.00;;;;;22.93;29.80;101714.25;5062132;28;45346;-61
2022/07/15 02:20:34;;;;;;;;;4.25;3.75;;;;;22.91;29.65;101709.91;5036432;28;45321;-61
2022/07/15 02:23:01;;;;;;;;;4.00;3.00;;;;;22.86;29.76;101723.53;5044204;28;45471;-61
2022/07/15 02:25:29;;;;;;;;;5.00;4.00;;;;;22.84;29.81;101717.38;5042458;28;46888;-61
2022/07/15 02:27:56;;;;;;;;;3.00;3.00;;;;;22.81;30.08;101730.94;5042123;28;45251;-61
2022/07/15 02:30:29;;;;;;;;;5.00;4.00;;;;;22.76;30.05;101722.25;5042562;28;45371;-61
2022/07/15 02:32:55;;;;;;;;;3.00;3.00;;;;;22.72;29.87;101716.19;5042278;28;45440;-61
2022/07/15 02:35:20;;;;;;;;;4.50;4.00;;;;;22.66;29.66;101720.03;5042002;28;45311;-61
2022/07/15 02:37:46;;;;;;;;;2.75;2.75;;;;;22.65;30.22;101714.75;5042083;28;45282;-61
2022/07/15 02:40:12;;;;;;;;;4.50;3.25;;;;;22.62;29.78;101718.44;5042433;28;45315;-61
2022/07/15 02:42:37;;;;;;;;;4.00;2.25;;;;;22.58;29.68;101711.53;5042030;28;45372;-61
2022/07/15 02:45:03;;;;;;;;;4.00;3.00;;;;;22.55;30.33;101717.00;5042182;28;45340;-61
2022/07/15 02:47:29;;;;;;;;;3.50;3.00;;;;;22.52;29.93;101711.81;5041909;28;45406;-61
2022/07/15 02:49:54;;;;;;;;;4.00;3.00;;;;;22.47;30.08;101713.84;5042248;28;45250;-60
2022/07/15 02:52:19;;;;;;;;;4.50;4.25;;;;;22.42;30.14;101713.22;5041814;28;45147;-61
2022/07/15 02:54:45;;;;;;;;;4.50;3.00;;;;;22.42;30.06;101723.94;5041969;28;45435;-61
2022/07/15 02:57:10;;;;;;;;;4.25;4.00;;;;;22.38;30.47;101732.09;5041620;28;45499;-61
2022/07/15 02:59:35;;;;;;;;;5.50;4.00;;;;;22.33;30.18;101723.38;5042288;28;45388;-61
2022/07/15 03:02:01;;;;;;;;;5.00;5.00;;;;;22.32;30.09;101732.34;5041564;28;45500;-61
2022/07/15 03:04:26;;;;;;;;;4.00;3.50;;;;;22.28;30.26;101724.56;5041814;28;45958;-61
2022/07/15 03:06:51;;;;;;;;;4.50;4.50;;;;;22.26;30.27;101740.69;5023756;28;45272;-61
2022/07/15 03:09:17;;;;;;;;;5.25;5.25;;;;;22.22;30.16;101737.28;5041751;28;45367;-61
2022/07/15 03:11:42;;;;;;;;;4.25;4.25;;;;;22.19;30.45;101742.78;5060023;28;45608;-61
2022/07/15 03:14:07;;;;;;;;;4.25;4.00;;;;;22.14;30.24;101739.47;5061740;28;52567;-61
2022/07/15 03:16:33;;;;;;;;;6.75;5.75;;;;;22.13;30.49;101745.75;5061612;28;45422;-61
2022/07/15 03:18:59;;;;;;;;;4.00;4.00;;;;;22.10;30.59;101745.03;5061920;28;45200;-61
2022/07/15 03:21:24;;;;;;;;;4.00;3.00;;;;;22.07;30.53;101740.69;5055560;28;45420;-61
2022/07/15 03:23:49;;;;;;;;;3.75;3.75;;;;;22.01;30.70;101747.22;5041224;28;47413;-61
2022/07/15 03:26:14;;;;;;;;;5.50;4.00;;;;;22.00;30.15;101748.16;5041531;28;45317;-61
2022/07/15 03:28:40;;;;;;;;;4.50;4.25;;;;;21.98;30.48;101755.38;5041671;28;45475;-61
2022/07/15 03:31:05;;;;;;;;;4.00;4.00;;;;;21.97;30.46;101750.09;5041257;28;45528;-61
2022/07/15 03:33:30;;;;;;;;;5.00;4.00;;;;;21.92;30.33;101747.63;5041455;28;45301;-61
2022/07/15 03:35:56;;;;;;;;;3.75;3.50;;;;;21.85;30.74;101732.81;5041185;28;48681;-61
2022/07/15 03:38:21;;;;;;;;;6.00;6.00;;;;;21.87;31.00;101736.25;5041273;28;45414;-61
2022/07/15 03:40:46;;;;;;;;;4.00;4.00;;;;;21.85;30.53;101730.13;5041144;28;45388;-61
2022/07/15 03:43:13;;;;;;;;;4.00;4.00;;;;;21.83;30.83;101734.69;5041161;28;46183;-61
2022/07/15 03:45:39;;;;;;;;;7.00;3.75;;;;;21.80;30.87;101734.81;5041082;28;45278;-61
2022/07/15 03:48:05;;;;;;;;;6.25;4.00;;;;;21.74;31.04;101727.94;5041172;28;45243;-61
2022/07/15 03:50:30;;;;;;;;;6.50;6.50;;;;;21.72;30.50;101728.03;5055560;28;45275;-61
2022/07/15 03:52:56;;;;;;;;;3.00;3.00;;;;;21.70;30.68;101735.22;5049848;28;45749;-61
2022/07/15 03:55:21;;;;;;;;;5.75;4.00;;;;;21.67;30.65;101731.81;5040995;28;45357;-61
2022/07/15 03:57:46;;;;;;;;;4.00;3.25;;;;;21.63;31.15;101732.91;5041146;28;45757;-61
2022/07/15 04:00:12;;;;;;;;;4.00;4.00;;;;;21.59;30.70;101732.19;5022883;28;45504;-61
2022/07/15 04:02:38;;;;;;;;;4.25;4.25;;;;;21.54;30.70;101734.16;5040653;28;45295;-61
2022/07/15 04:05:04;;;;;;;;;3.75;3.75;;;;;21.53;31.01;101740.44;5040838;28;45177;-61
2022/07/15 04:07:30;;;;;;;;;3.25;3.25;;;;;21.50;31.23;101746.78;5040882;28;45350;-61
2022/07/15 04:09:55;;;;;;;;;4.00;4.00;;;;;21.47;30.79;101743.38;5044141;28;45328;-61
2022/07/15 04:12:20;;;;;;;;;4.25;4.00;;;;;21.42;30.94;101741.78;5060968;28;45712;-60
2022/07/15 04:14:46;;;;;;;;;6.00;5.00;;;;;21.42;30.95;101741.78;5060346;28;55704;-61
2022/07/15 04:17:11;;;;;;;;;5.25;5.00;;;;;21.38;31.26;101737.53;5061014;28;45527;-61
2022/07/15 04:19:36;;;;;;;;;4.00;4.00;;;;;21.39;31.35;101749.06;5060878;28;45387;-61
2022/07/15 04:22:02;;;;;;;;;6.00;5.00;;;;;21.36;31.16;101751.91;5050315;28;46298;-60
2022/07/15 04:24:27;;;;;;;;;5.75;4.00;;;;;21.32;31.24;101752.94;5040252;28;45353;-62
2022/07/15 04:26:53;;;;;;;;;7.00;4.75;;;;;21.30;31.16;101753.00;5040722;28;45336;-61
2022/07/15 04:29:18;;;;;;;;;5.25;3.50;;;;;21.29;31.49;101753.09;5040467;28;45496;-61
2022/07/15 04:31:43;;;;;;;;;4.00;2.50;;;;;21.26;31.66;101746.94;5040206;28;46439;-61
2022/07/15 04:34:08;;;;;;;;;3.50;3.50;;;;;21.23;31.65;101747.06;5040434;28;45282;-60
2022/07/15 04:36:34;;;;;;;;;7.75;4.00;;;;;21.14;31.26;101727.88;5022735;28;45555;-60
2022/07/15 04:38:59;;;;;;;;;5.25;4.00;;;;;21.20;31.46;101743.66;5040182;28;45486;-61
2022/07/15 04:41:24;;;;;;;;;4.50;4.25;;;;;21.19;31.31;101745.44;5040232;28;46281;-61
2022/07/15 04:43:50;;;;;;;;;4.00;4.00;;;;;21.20;31.43;101755.22;5040189;28;45834;-60
2022/07/15 04:46:15;;;;;;;;;4.75;3.50;;;;;21.18;31.97;101765.13;5040468;28;45575;-61
2022/07/15 04:51:24;;;;;;;;;3.00;3.00;;;;;21.15;31.47;101761.69;5040145;28;45183;-61
2022/07/15 04:53:49;;;;;;;;;3.00;3.00;;;;;21.11;31.76;101753.78;5039529;28;51618;-61
2022/07/15 04:56:15;;;;;;;;;5.00;5.00;;;;;21.09;31.80;101761.03;5040970;28;45266;-61
2022/07/15 04:58:40;;;;;;;;;4.25;4.25;;;;;21.09;31.97;101763.69;5042014;28;45602;-60
2022/07/15 05:01:07;;;;;;;;;5.00;5.00;;;;;21.08;32.27;101764.63;5039521;28;46304;-61
2022/07/15 05:03:32;;;;;;;;;4.00;4.00;;;;;21.04;31.82;101763.03;5039849;28;45368;-63
2022/07/15 05:05:58;;;;;;;;;6.25;3.25;;;;;21.06;31.71;101761.16;5040166;28;45854;-60
2022/07/15 05:08:23;;;;;;;;;5.25;4.00;;;;;21.05;31.79;101774.56;5039692;28;45241;-60
2022/07/15 05:10:48;;;;;;;;;5.25;4.25;;;;;21.03;32.04;101777.31;5050687;28;45999;-61
2022/07/15 05:13:14;;;;;;;;;7.50;5.75;;;;;21.03;31.99;101781.78;5060076;28;45237;-61
2022/07/15 05:15:39;;;;;;;;;3.75;3.00;;;;;21.02;32.29;101788.94;5059989;28;45474;-61
2022/07/15 05:18:04;;;;;;;;;3.00;3.00;;;;;20.99;31.97;101782.84;5059703;28;45320;-61
2022/07/15 05:20:30;;;;;;;;;5.50;4.00;;;;;20.95;31.94;101779.44;5059934;28;45352;-61
2022/07/15 05:22:55;;;;;;;;;6.50;5.00;;;;;20.98;32.50;101790.00;5042334;28;45352;-60
2022/07/15 05:25:20;;;;;;;;;5.00;5.00;;;;;20.95;32.10;101779.44;5039893;28;45377;-61
2022/07/15 05:27:46;;;;;;;;;6.00;5.00;;;;;20.97;32.60;101788.25;5039614;28;45497;-61
2022/07/15 05:30:12;;;;;;;;;7.50;4.50;;;;;20.96;32.27;101791.84;5039454;28;46070;-61
2022/07/15 05:32:38;;;;;;;;;6.00;6.00;;;;;20.96;32.28;101797.19;5039380;28;45401;-60
2022/07/15 05:35:04;;;;;;;;;4.25;4.25;;;;;20.96;32.79;101796.34;5021826;28;45258;-61
2022/07/15 05:37:29;;;;;;;;;6.25;5.00;;;;;20.95;32.71;101800.81;5039179;28;45379;-61
2022/07/15 05:39:55;;;;;;;;;7.50;6.50;;;;;20.94;32.47;101802.63;5039454;28;45273;-61
2022/07/15 05:42:21;;;;;;;;;5.75;4.75;;;;;20.94;32.92;101799.94;5039164;28;45269;-60
2022/07/15 05:44:47;;;;;;;;;5.50;4.50;;;;;20.92;32.93;101803.63;5041431;28;45491;-60
2022/07/15 05:47:13;;;;;;;;;5.75;4.50;;;;;20.93;33.04;101816.91;5042819;28;45408;-60
2022/07/15 05:49:38;;;;;;;;;6.00;5.00;;;;;20.91;32.98;101807.22;5042860;28;46611;-61
2022/07/15 05:52:04;;;;;;;;;6.25;6.25;;;;;20.93;32.67;101816.91;5042673;28;45145;-61
2022/07/15 05:54:29;;;;;;;;;6.00;5.00;;;;;20.94;33.10;101817.75;5043136;28;45328;-60
2022/07/15 05:56:55;;;;;;;;;8.50;5.00;;;;;20.93;32.92;101821.38;5042828;28;45428;-60
2022/07/15 05:59:20;;;;;;;;;6.75;6.75;;;;;20.93;32.80;101818.72;5042598;28;47373;-61
2022/07/15 06:01:46;;;;;;;;;6.50;6.50;;;;;20.94;32.86;101826.66;5042557;28;45356;-60
2022/07/15 06:04:13;;;;;;;;;5.50;5.00;;;;;20.96;33.00;101829.25;5042888;28;45302;-60
2022/07/15 06:06:38;;;;;;;;;6.00;5.00;;;;;20.94;33.05;101825.78;5042564;28;45435;-60
2022/07/15 06:09:04;;;;;;;;;4.00;4.00;;;;;20.98;33.03;101823.84;5042274;28;45364;-61
2022/07/15 06:11:29;;;;;;;;;6.00;6.00;;;;;21.00;33.52;101832.69;5041038;28;45423;-61
2022/07/15 06:13:54;;;;;;;;;7.75;6.00;;;;;21.01;33.03;101837.94;5062852;28;45824;-60
2022/07/15 06:16:20;;;;;;;;;5.50;5.00;;;;;21.02;33.43;101831.69;5062649;28;45422;-61
2022/07/15 06:18:45;;;;;;;;;9.00;6.75;;;;;21.04;33.42;101824.50;5062700;28;45348;-60
2022/07/15 06:21:11;;;;;;;;;7.75;7.75;;;;;21.04;33.45;101819.16;5060167;28;46090;-60
2022/07/15 06:23:36;;;;;;;;;9.00;8.00;;;;;21.05;33.41;101820.84;5042536;28;45481;-60
2022/07/15 06:26:02;;;;;;;;;7.50;6.00;;;;;21.08;33.79;101827.88;5042409;28;45223;-60
2022/07/15 06:28:27;;;;;;;;;8.25;7.00;;;;;21.09;33.83;101825.16;5042523;28;46143;-60
2022/07/15 06:30:52;;;;;;;;;5.75;5.75;;;;;21.10;33.62;101832.22;5024398;28;45312;-60
2022/07/15 06:33:18;;;;;;;;;10.00;8.50;;;;;21.13;34.06;101819.69;5042605;28;45218;-60
2022/07/15 06:35:43;;;;;;;;;8.25;8.25;;;;;21.13;33.89;101831.25;5042334;28;45635;-60
2022/07/15 06:38:08;;;;;;;;;7.00;6.75;;;;;21.15;33.41;101837.38;5042143;28;46091;-60
2022/07/15 06:40:34;;;;;;;;;6.25;6.25;;;;;21.15;33.56;101836.53;5042206;28;45368;-61
2022/07/15 06:42:59;;;;;;;;;9.50;6.25;;;;;21.16;34.09;101832.94;5042381;28;45361;-61
2022/07/15 06:45:25;;;;;;;;;8.50;7.25;;;;;21.18;33.58;101839.94;5024482;28;45296;-61
2022/07/15 06:47:50;;;;;;;;;8.50;7.00;;;;;21.22;33.80;101854.03;5042021;28;46047;-60
2022/07/15 06:50:15;;;;;;;;;9.00;6.00;;;;;21.24;33.65;101854.84;5042237;28;45374;-61
2022/07/15 06:52:41;;;;;;;;;7.75;6.25;;;;;21.26;34.23;101855.66;5041959;28;45309;-60
2022/07/15 06:55:07;;;;;;;;;7.50;7.00;;;;;21.28;33.92;101853.78;5041510;28;45309;-61
2022/07/15 06:57:32;;;;;;;;;6.75;6.75;;;;;21.30;34.34;101846.56;5041282;28;45959;-60
2022/07/15 06:59:57;;;;;;;;;8.75;8.00;;;;;21.30;33.80;101841.22;5041913;28;45405;-60
2022/07/15 07:02:24;;;;;;;;;5.50;5.50;;;;;21.33;33.71;101846.44;5041859;28;45318;-60
2022/07/15 07:04:49;;;;;;;;;6.50;6.50;;;;;21.35;33.93;101844.56;5042053;28;45366;-61
2022/07/15 07:07:15;;;;;;;;;6.75;6.00;;;;;21.39;34.30;101858.69;5041546;28;46865;-61
2022/07/15 07:09:40;;;;;;;;;6.00;6.00;;;;;21.40;33.77;101849.72;5042828;28;45475;-61
2022/07/15 07:12:06;;;;;;;;;6.50;5.25;;;;;21.43;34.23;101845.13;5062218;28;45151;-61
2022/07/15 07:14:31;;;;;;;;;5.00;5.00;;;;;21.45;33.79;101846.88;5061864;28;45168;-61
2022/07/15 07:16:57;;;;;;;;;6.50;4.75;;;;;21.48;34.22;101841.38;5061766;28;45235;-61
2022/07/15 07:19:22;;;;;;;;;4.00;4.00;;;;;21.51;33.84;101838.56;5061870;28;45484;-61
2022/07/15 07:21:47;;;;;;;;;8.25;5.50;;;;;21.53;33.92;101842.06;5043878;28;45294;-60
2022/07/15 07:24:13;;;;;;;;;6.00;4.50;;;;;21.56;33.61;101839.28;5061468;28;45483;-65
2022/07/15 07:26:38;;;;;;;;;4.50;3.25;;;;;21.59;34.21;101839.16;5061678;28;47081;-61
2022/07/15 07:29:04;;;;;;;;;5.25;5.25;;;;;21.62;34.34;101836.31;5061631;28;45217;-61
2022/07/15 07:31:30;;;;;;;;;5.00;4.00;;;;;21.66;34.19;101835.28;5061622;28;45525;-61
2022/07/15 07:33:57;;;;;;;;;5.25;5.00;;;;;21.70;34.26;101833.34;5061348;28;45467;-60
2022/07/15 07:36:23;;;;;;;;;6.75;5.00;;;;;21.74;33.89;101833.13;5061816;28;45487;-60
2022/07/15 07:38:48;;;;;;;;;7.75;6.00;;;;;21.78;33.79;101836.53;5061131;28;45285;-61
2022/07/15 07:41:14;;;;;;;;;7.00;4.75;;;;;21.82;34.17;101837.28;5043454;28;45495;-61
2022/07/15 07:43:39;;;;;;;;;5.75;5.00;;;;;21.84;33.94;101836.25;5061387;28;45286;-60
2022/07/15 07:46:05;;;;;;;;;5.00;5.00;;;;;21.90;33.76;101840.50;5061446;28;46145;-60
2022/07/15 07:48:30;;;;;;;;;6.00;4.00;;;;;21.95;33.98;101830.44;5061364;28;45278;-60
2022/07/15 07:50:57;;;;;;;;;4.25;4.00;;;;;21.96;33.85;101832.19;5061587;28;45294;-61
2022/07/15 07:53:22;;;;;;;;;5.75;3.25;;;;;22.03;33.57;101832.75;5061105;28;45671;-61
2022/07/15 07:55:48;;;;;;;;;4.00;4.00;;;;;22.08;33.93;101826.25;5061407;28;45462;-61
2022/07/15 07:58:16;;;;;;;;;3.00;3.00;;;;;22.10;33.31;101822.63;5039658;28;45266;-61
2022/07/15 08:00:41;;;;;;;;;5.00;5.00;;;;;22.16;33.53;101828.59;5039739;28;45477;-61
2022/07/15 08:03:07;;;;;;;;;5.00;3.50;;;;;22.22;33.75;101827.44;5026353;28;45307;-61
2022/07/15 08:05:32;;;;;;;;;4.00;4.00;;;;;22.26;33.40;101812.97;5019873;28;48165;-61
2022/07/15 08:08:16;;;;;;;;;6.50;5.50;;;;;22.32;32.96;101818.03;5020283;28;45318;-60
2022/07/15 08:10:45;;;;;;;;;3.25;3.25;;;;;22.37;33.09;101823.22;5031087;28;45346;-61
2022/07/15 08:13:12;;;;;;;;;4.75;4.75;;;;;22.42;33.39;101812.28;5040822;28;45348;-61
2022/07/15 08:15:38;;;;;;;;;4.00;4.00;;;;;22.45;33.37;101809.47;5040978;28;45253;-61
2022/07/15 08:18:03;;;;;;;;;3.50;3.00;;;;;22.50;32.93;101820.81;5040717;28;45225;-61
2022/07/15 08:20:29;;;;;;;;;4.25;3.00;;;;;22.56;33.04;101812.50;5040903;28;45598;-61
2022/07/15 08:23:01;;;;;;;;;5.00;3.00;;;;;22.60;32.73;101815.91;5023392;28;45479;-61
2022/07/15 08:25:33;;;;;;;;;5.00;4.00;;;;;22.65;33.16;101819.22;5020467;28;45455;-61
2022/07/15 08:27:59;;;;;;;;;3.00;2.25;;;;;22.69;32.96;101818.13;5020577;28;45437;-61
2022/07/15 08:30:27;;;;;;;;;6.50;3.75;;;;;22.73;32.58;101809.88;5020763;28;45250;-61
2022/07/15 08:32:54;;;;;;;;;5.00;5.00;;;;;22.77;32.56;101812.41;5020317;28;45242;-61
2022/07/15 08:35:20;;;;;;;;;4.25;4.25;;;;;22.81;32.68;101808.63;5020538;28;46164;-61
2022/07/15 08:37:45;;;;;;;;;5.00;4.25;;;;;22.85;32.58;101812.88;5020182;28;45304;-61
2022/07/15 08:40:12;;;;;;;;;2.00;2.00;;;;;22.89;32.31;101814.47;5020707;28;45333;-61
2022/07/15 08:42:43;;;;;;;;;2.75;2.75;;;;;22.94;32.59;101811.56;5020392;28;45458;-61
2022/07/15 08:45:09;;;;;;;;;2.50;2.50;;;;;22.99;32.54;101806.84;5020445;28;45234;-61
2022/07/15 08:47:37;;;;;;;;;6.00;4.00;;;;;23.03;32.54;101811.09;5019064;28;45359;-61
2022/07/15 08:50:04;;;;;;;;;6.00;3.25;;;;;23.08;31.98;101808.19;5020297;28;45274;-60
2022/07/15 08:52:33;;;;;;;;;2.50;2.50;;;;;23.12;32.28;101801.72;5020071;28;45785;-61
2022/07/15 08:54:59;;;;;;;;;4.00;2.00;;;;;23.16;31.98;101803.38;5019860;28;46122;-61
2022/07/15 08:57:24;;;;;;;;;5.50;3.75;;;;;23.20;32.08;101804.94;5023417;28;45437;-61
2022/07/15 08:59:51;;;;;;;;;3.25;2.25;;;;;23.25;32.01;101802.88;5040156;28;45341;-61
2022/07/15 09:02:21;;;;;;;;;3.25;2.50;;;;;23.31;32.08;101796.34;5040286;28;45324;-61
2022/07/15 09:05:17;;;;;;;;;3.50;3.00;;;;;23.36;31.69;101795.16;5039801;28;46191;-61
2022/07/15 09:08:01;;;;;;;;;4.75;4.00;;;;;23.41;31.88;101797.59;5039713;28;45195;-61
2022/07/15 09:10:57;;;;;;;;;2.50;2.00;;;;;23.47;31.69;101786.56;5048084;28;45271;-61
2022/07/15 09:13:38;;;;;;;;;3.25;3.00;;;;;23.53;31.63;101794.28;5032784;28;45660;-61
2022/07/15 09:16:08;;;;;;;;;2.50;2.00;;;;;23.58;31.64;101794.03;5059731;28;45499;-61
2022/07/15 09:18:43;;;;;;;;;2.75;1.00;;;;;23.61;31.46;101793.00;5058645;28;45226;-61
2022/07/15 09:21:23;;;;;;;;;3.50;2.75;;;;;23.70;31.25;101798.75;5057180;28;45225;-61
2022/07/15 09:23:56;;;;;;;;;2.75;2.00;;;;;23.77;31.22;101799.31;5039659;28;45455;-61
2022/07/15 09:26:33;;;;;;;;;4.25;3.25;;;;;23.82;31.37;101788.31;5021688;28;46346;-61
2022/07/15 09:29:00;;;;;;;;;4.75;3.75;;;;;23.88;31.08;101797.88;5039665;28;45363;-61
2022/07/15 09:34:23;;;;;;;;;2.00;2.00;;;;;24.02;30.91;101798.00;5039829;28;45319;-61
2022/07/15 09:36:54;;;;;;;;;3.00;3.00;;;;;24.08;30.78;101794.13;5039316;28;45333;-61
2022/07/15 09:39:21;;;;;;;;;12.25;10.75;;;;;24.14;30.78;101785.75;5039482;28;45378;-61
2022/07/15 09:41:48;;;;;;;;;8.75;6.25;;;;;24.18;30.70;101788.16;5021504;28;45255;-62
2022/07/15 09:44:15;;;;;;;;;2.50;2.50;;;;;24.25;30.73;101786.00;5039433;28;45302;-62
2022/07/15 09:46:49;;;;;;;;;3.25;2.50;;;;;24.31;30.41;101782.97;5039318;28;46882;-62
2022/07/15 09:49:17;;;;;;;;;3.75;2.00;;;;;24.37;30.45;101787.13;5039208;28;45342;-62
2022/07/15 09:51:48;;;;;;;;;5.25;2.50;;;;;24.44;30.42;101788.53;5039508;28;45318;-62
2022/07/15 09:54:14;;;;;;;;;1.00;1.00;;;;;24.53;30.40;101791.63;5022471;28;45235;-62
2022/07/15 09:56:39;;;;;;;;;2.25;2.25;;;;;24.60;29.97;101787.66;5038782;28;45532;-62
2022/07/15 09:59:06;;;;;;;;;3.00;3.00;;;;;24.68;29.91;101790.81;5039403;28;45329;-62
2022/07/15 10:01:32;;;;;;;;;2.00;2.00;;;;;24.75;30.09;101783.25;5039340;28;45375;-63
2022/07/15 10:03:57;;;;;;;;;2.00;2.00;;;;;24.81;30.02;101774.81;5039507;28;48290;-62
2022/07/15 10:06:27;;;;;;;;;3.25;2.00;;;;;24.91;29.71;101777.84;5039272;28;45450;-62
2022/07/15 10:08:53;;;;;;;;;1.00;1.00;;;;;24.98;29.51;101777.41;5021220;28;45237;-63
2022/07/15 10:11:19;;;;;;;;;1.00;1.00;;;;;25.09;29.55;101778.56;5054398;28;45435;-63
2022/07/15 10:14:07;;;;;;;;;2.25;2.00;;;;;25.19;29.38;101776.22;5059516;28;45383;-62
2022/07/15 10:17:09;;;;;;;;;3.00;3.00;;;;;25.30;29.71;101774.59;5058946;28;45435;-63
2022/07/15 10:20:12;;;;;;;;;4.00;3.75;;;;;25.42;29.71;101775.72;5058898;28;45419;-63
2022/07/15 10:23:01;;;;;;;;;8.00;7.00;;;;;25.55;29.08;101778.53;5043859;28;45547;-63
2022/07/15 10:26:02;;;;;;;;;9.00;8.50;;;;;25.66;29.16;101782.38;5038896;28;45387;-63
2022/07/15 10:28:45;;;;;;;;;7.50;7.00;;;;;25.77;29.07;101779.88;5001227;28;46139;-64
2022/07/15 10:31:28;;;;;;;;;6.50;6.25;;;;;25.88;28.39;101777.38;5041140;28;45384;-64
2022/07/15 10:34:02;;;;;;;;;4.00;4.00;;;;;26.00;28.93;101774.88;5042277;28;45419;-63
2022/07/15 10:36:53;;;;;;;;;2.50;2.50;;;;;26.10;28.39;101768.84;5042389;28;45439;-63
2022/07/15 10:39:21;;;;;;;;;3.25;2.75;;;;;26.24;28.55;101767.97;5041525;28;45392;-64
2022/07/15 10:42:00;;;;;;;;;1.00;1.00;;;;;26.39;28.12;101758.03;5042121;28;45325;-64
2022/07/15 10:44:28;;;;;;;;;1.75;1.75;;;;;26.54;28.37;101747.19;5049512;28;45314;-65
2022/07/15 10:47:11;;;;;;;;;2.00;2.00;;;;;26.74;27.98;101753.97;5062188;28;45387;-65
2022/07/15 10:49:37;;;;;;;;;3.00;3.00;;;;;26.94;28.61;101736.44;5044053;28;45887;-64
2022/07/15 10:52:15;;;;;;;;;2.00;2.00;;;;;27.36;29.08;101744.41;5061829;28;45237;-65
2022/07/15 10:54:42;;;;;;;;;1.00;1.00;;;;;27.86;29.15;101750.78;5062463;28;45300;-65
2022/07/15 10:57:08;;;;;;;;;3.25;3.00;;;;;28.44;28.73;101752.91;5061894;28;45326;-64
2022/07/15 10:59:41;;;;;;;;;0.25;0.25;;;;;29.11;29.37;101740.69;5062172;28;45264;-65
2022/07/15 11:02:06;;;;;;;;;2.00;2.00;;;;;29.79;29.05;101735.38;5061917;28;45312;-65
2022/07/15 11:04:33;;;;;;;;;1.00;1.00;;;;;30.48;29.18;101737.03;5062216;28;45474;-66
2022/07/15 11:07:01;;;;;;;;;1.50;1.50;;;;;31.20;29.26;101731.91;5061775;28;45298;-66
2022/07/15 11:09:51;;;;;;;;;2.00;2.00;;;;;32.01;28.74;101743.88;5061817;28;45409;-65
2022/07/15 11:12:21;;;;;;;;;3.00;1.50;;;;;32.75;28.82;101734.44;5051678;28;45324;-65
2022/07/15 11:14:48;;;;;;;;;2.00;1.25;;;;;33.45;28.18;101730.63;5061962;28;45265;-65
2022/07/15 11:17:17;;;;;;;;;0.50;0.50;;;;;34.23;28.44;101740.28;5061887;28;45241;-64
2022/07/15 11:19:46;;;;;;;;;3.25;1.50;;;;;35.00;28.01;101729.78;5061666;28;46462;-65
2022/07/15 11:22:11;;;;;;;;;0.25;0.25;;;;;35.74;27.87;101724.78;5050283;28;45346;-66
2022/07/15 11:24:37;;;;;;;;;2.00;1.75;;;;;36.48;27.82;101729.66;5041643;28;45439;-66
2022/07/15 11:27:02;;;;;;;;;3.25;2.25;;;;;37.20;27.13;101734.41;5041707;28;45524;-67
2022/07/15 11:29:52;;;;;;;;;0.50;0.50;;;;;37.95;26.36;101734.22;5041489;28;45412;-66
2022/07/15 11:32:19;;;;;;;;;2.50;1.00;;;;;38.59;26.36;101733.13;5041171;28;45352;-64
2022/07/15 11:34:48;;;;;;;;;0.75;0.75;;;;;39.10;25.84;101721.53;5041639;28;45281;-64